默认 日期 大小 文件数 浏览量 最新下载 xml
melodic磁力链接相关资源由用户搜索指令自动获取,结果来源于网络,本站不存储任何资料,亦不承担任何责任,请于24小时内删除,搜索到1871个磁力,用时2ms。
    {"VA [2007] Best Of Swedish Melodic-Black-Death Metal [Vol I]": {" ...
创建时间: 2025-03-11 08:16:25 大小:73.87 MB 文件数量:10 热度:4 最近下载:2025-09-12 17:51:06
    ... wav": 666926, "TKNVLT_MTE1_SYNTH_SHOT_50_C.wav": 666926}, "Melodic & Synths": {"Arp Loops": {"MIDI": ... 6119692, "TKNVLT_MTBN1_DRONE_ATMO_10_C#M_125.wav": 6119692}, "Melodic": {"TKNVLT_MTBN1_MELODIC__03_F_125.wav": 6119692, "TKNVLT_MTBN1_MELODIC__05_C_125.wav ...
创建时间: 2025-03-11 13:49:04 大小:6.76 GB 文件数量:4920 热度:1 最近下载:2025-03-11 20:31:01
    {"Best Of Melodic Vocal Trance, Vol. 2_tracklist.txt": ... ).mp3": 9028408, "VA - Best Of Melodic Vocal Trance, Vol. 2 - Front ...
创建时间: 2025-03-14 15:42:15 大小:288.86 MB 文件数量:32 热度:2 最近下载:2025-03-16 21:33:04
    {"Loops": {"fx_loops": {"Atmosphere_Loops": {"STCR2_MHPT2_128_FX_Atmosphere_Torrid_G#min.wav": 3970396, "STCR2_MHPT2_128_FX_Atmosphere_Baffling_Emin.wav": 3970228, "STCR2_MHPT2_125_FX_Atmosphere_Reversive_Gmin.wav": 4065484, " ...
创建时间: 2025-03-17 14:54:52 大小:607.84 MB 文件数量:323 热度:1 最近下载:2025-03-17 22:43:04
    {"cover.jpg": 65999, "playlist.m3u8": 955, "29 - Fever.flac": 37197206, "03 - Wonder.flac": 45193305, "08 - Kosmos.flac": 20625721, "10 - Hollow.flac": 22253860, "04 - Forgiven.flac": 29947671, "20 - Dark Rose.flac": 31809003, "14 - Who We Are.flac": ...
创建时间: 2025-03-21 13:04:18 大小:966.66 MB 文件数量:32 热度:1 最近下载:2025-03-21 19:59:07
    {"Loops": {"fx_loops": {"Atmosphere_Loops": {"STCR2_MHPT2_128_FX_Atmosphere_Torrid_G#min.wav": 3970396, "STCR2_MHPT2_128_FX_Atmosphere_Baffling_Emin.wav": 3970228, "STCR2_MHPT2_125_FX_Atmosphere_Reversive_Gmin.wav": 4065484, " ...
创建时间: 2025-03-22 08:28:22 大小:607.84 MB 文件数量:323 热度:1 最近下载:2025-03-22 21:48:02
    {"FF_MHT_Lead_bat.SerumPreset": 4293, "FF_MHT_Pad_deep.SerumPreset": 5854559, "FF_MHT_Pluck_iy.SerumPreset": 251007, "FF_MHT_Bass_acid.SerumPreset": 244249, "FF_MHT_Bass_otto.SerumPreset": 244490, "FF_MHT_Lead_lane.SerumPreset": 574819, "FF_MHT_Pad_choir. ...
创建时间: 2025-03-23 09:48:14 大小:88.62 MB 文件数量:100 热度:1 最近下载:2025-03-23 20:20:03
    {"cover.jpg": 1137796, "05. A Final Breath.flac": 38171115, "13. Gravity Bending.flac": 32652766, "15. Signals Flicker.flac": 41016582, "08. Electric Whisper!.flac": 31805290, "09. Lights Refracting.flac": 21996597, "11. Fractured Signals.flac": 20141562, ...
创建时间: 2025-03-26 16:48:59 大小:495.12 MB 文件数量:17 热度:1 最近下载:2025-03-26 22:09:02
    {"Info.txt": 511, "124809_logo.jpg": 39838, "MetalManiac.JPG": 35854, "01. Covered In Blood.mp3": 5660726, "06. Glourious Destruction.mp3": 6429756, "02. Mechanics Of Existence.mp3": 5658515, "04. Intermezzo And Free To Be.mp3": 7276099, "03. My Wife Is A ...
创建时间: 2025-03-29 12:27:03 大小:35.26 MB 文件数量:12 热度:4 最近下载:2025-09-15 14:14:05
    {"audionews.nfo": 720, "Melodic.Techno.Series2.rar": 1068954985}
创建时间: 2025-04-03 10:35:45 大小:1019.44 MB 文件数量:2 热度:4 最近下载:2025-09-20 04:16:02
    {"FF_MHT_Lead_bat.SerumPreset": 4293, "FF_MHT_Pad_deep.SerumPreset": 5854559, "FF_MHT_Pluck_iy.SerumPreset": 251007, "FF_MHT_Bass_acid.SerumPreset": 244249, "FF_MHT_Bass_otto.SerumPreset": 244490, "FF_MHT_Lead_lane.SerumPreset": 574819, "FF_MHT_Pad_choir. ...
创建时间: 2025-04-05 14:36:12 大小:88.62 MB 文件数量:100 热度:1 最近下载:2025-04-05 19:23:01
    {"kl.jpg": 669475, "01. Emrah Balkan - Star (Original Mix).mp3": 16108450, "15. Emrah Balkan - Grace (Original Mix).mp3": 11927816, "09. Emrah Balkan - Patchy (Original Mix).mp3": 17346658, "11. Emrah Balkan - Scythe (Original Mix).mp3": 14869206, "13. ...
创建时间: 2025-04-07 14:17:42 大小:290.45 MB 文件数量:21 热度:1 最近下载:2025-04-08 20:06:03
    {"audionews.nfo": 1018, "Ultra.Melodic.House.Vocals3.rar": 326080152}
创建时间: 2025-04-09 11:58:01 大小:310.98 MB 文件数量:2 热度:3 最近下载:2025-09-19 00:25:02
    {"cover.jpg": 28209, "playlist.m3u8": 631, "01 - Enigma.flac": 19887340, "12 - Treasure.flac": 25665495, "22 - Serenity.flac": 24833829, "07 - Smoothing.flac": 35454630, "05 - Spellbound.flac": 22714626, "13 - Swept Away.flac": 26335027, "14 - Temptation. ...
创建时间: 2025-04-12 16:44:15 大小:600.35 MB 文件数量:27 热度:2 最近下载:2025-09-01 10:40:01
    ... - Slow Breath.flac": 178791371, "04 - Melodic Hope.flac": 133736644, "02 - Grainy ...
创建时间: 2025-04-16 15:33:19 大小:1.19 GB 文件数量:11 热度:6 最近下载:2025-09-17 20:08:09
    {"loops": {"fx_loops": {"TSP_HTMV4_174_fx_acid_riser_D.wav": 1460042, "TSP_HTMV4_174_fx_dew_dew_riser_G.wav": 2919902, "TSP_HTMV4_174_fx_confusing_riser_E.wav": 5839628}, "bass_loops": {"TSP_HTMV4_174_bass_synth_donk_Fmin.wav": 2919902, " ...
创建时间: 2025-04-18 14:31:39 大小:222.04 MB 文件数量:170 热度:8 最近下载:2025-10-03 22:44:01
    ... - Slow Breath.flac": 43047686, "04 - Melodic Hope.flac": 35532661, "02 - Grainy ...
创建时间: 2025-04-19 18:20:22 大小:324.98 MB 文件数量:13 热度:3 最近下载:2025-09-15 13:42:02
    {"Melodic.part1.rar": 1038090246, "Melodic.part2.rar": 1038090246, "Melodic.part3.rar": 418210872}
创建时间: 2025-04-20 10:08:50 大小:2.32 GB 文件数量:3 热度:4 最近下载:2025-09-18 21:42:08
    ... Agreement.pdf": 53574, "PML - Acoustic Melodic House Themes Vol. 4 (PML311 ... - Product Information - Sample Pack - Acoustic Melodic House 4.pdf": 1900628}, "Atmosphere ...
创建时间: 2025-04-21 15:08:09 大小:1.66 GB 文件数量:537 热度:1 最近下载:2025-04-22 19:32:04
    {"folder.jpg": 205485, "36. Nilla - Feel (Original Mix).mp3": 17114847, "42. M1NA - Giver (Original Mix).mp3": 16066814, "58. Jack2 - Fire (Original Mix).mp3": 14250781, "45. SUDOS - Oasis (Original Mix).mp3": 16571502, "43. M1NA - Move On ( ...
创建时间: 2025-04-26 08:59:15 大小:1.1 GB 文件数量:82 热度:1 最近下载:2025-04-27 01:39:01